Time;durP1;ratioP1;P1;durP2;ratioP2;P2;SDS_P1;SDS_P2;PMS_P1;PMS_P2;Temp;Humidity;BMP_temperature;BMP_pressure;BME280_temperature;BME280_humidity;BME280_pressure;Samples;Min_cycle;Max_cycle;Signal;HPM_P1;HPM_P2
2022/12/20 00:01:19;;;;;;;34.87;20.90;;;;;;;;;;5037519;28;20437;-64
2022/12/20 00:03:45;;;;;;;38.20;22.37;;;;;;;;;;5033622;28;20457;-62
2022/12/20 00:06:13;;;;;;;34.10;21.23;;;;;;;;;;5028530;28;20497;-64
2022/12/20 00:08:39;;;;;;;34.33;18.90;;;;;;;;;;5011788;28;20410;-62
2022/12/20 00:11:07;;;;;;;34.27;20.47;;;;;;;;;;5011306;28;20403;-63
2022/12/20 00:13:33;;;;;;;31.03;20.30;;;;;;;;;;5011391;28;20465;-63
2022/12/20 00:16:23;;;;;;;28.80;21.47;;;;;;;;;;5010871;28;20840;-65
2022/12/20 00:18:56;;;;;;;30.60;21.07;;;;;;;;;;5000743;28;20422;-63
2022/12/20 00:21:23;;;;;;;31.57;21.40;;;;;;;;;;5010380;28;20430;-63
2022/12/20 00:23:49;;;;;;;35.90;21.67;;;;;;;;;;5010774;28;20505;-66
2022/12/20 00:26:16;;;;;;;35.03;22.50;;;;;;;;;;5010660;28;20807;-65
2022/12/20 00:28:44;;;;;;;34.90;22.60;;;;;;;;;;5010265;28;20426;-63
2022/12/20 00:31:10;;;;;;;35.47;21.13;;;;;;;;;;5009604;28;20415;-65
2022/12/20 00:33:37;;;;;;;29.07;19.10;;;;;;;;;;5010301;28;20407;-62
2022/12/20 00:36:04;;;;;;;30.47;20.57;;;;;;;;;;5010526;28;21066;-65
2022/12/20 00:38:30;;;;;;;35.67;21.60;;;;;;;;;;5010494;28;20407;-64
2022/12/20 00:41:17;;;;;;;30.70;20.47;;;;;;;;;;5009989;28;20407;-62
2022/12/20 00:43:43;;;;;;;37.60;21.80;;;;;;;;;;5010046;28;20454;-62
2022/12/20 00:46:10;;;;;;;29.53;19.67;;;;;;;;;;5010108;28;20415;-65
2022/12/20 00:48:36;;;;;;;36.90;22.83;;;;;;;;;;5010602;28;20462;-66
2022/12/20 00:51:04;;;;;;;46.60;21.20;;;;;;;;;;5009781;28;20418;-68
2022/12/20 00:53:30;;;;;;;29.43;19.60;;;;;;;;;;5010584;28;20407;-66
2022/12/20 00:55:57;;;;;;;30.17;19.40;;;;;;;;;;5012855;28;20446;-66
2022/12/20 00:58:23;;;;;;;32.57;21.50;;;;;;;;;;5014004;28;20435;-66
2022/12/20 01:00:49;;;;;;;27.03;18.40;;;;;;;;;;5013417;28;20407;-66
2022/12/20 01:03:15;;;;;;;30.03;21.93;;;;;;;;;;5014351;28;20462;-66
2022/12/20 01:05:49;;;;;;;26.87;18.13;;;;;;;;;;5014614;28;20439;-66
2022/12/20 01:08:15;;;;;;;30.20;20.27;;;;;;;;;;5014414;28;20434;-67
2022/12/20 01:10:41;;;;;;;33.53;20.10;;;;;;;;;;5013496;28;20410;-67
2022/12/20 01:13:07;;;;;;;31.00;20.40;;;;;;;;;;5013907;28;20410;-66
2022/12/20 01:15:33;;;;;;;26.67;19.80;;;;;;;;;;5014290;28;20423;-65
2022/12/20 01:18:00;;;;;;;30.90;20.10;;;;;;;;;;5014523;28;20403;-67
2022/12/20 01:20:26;;;;;;;36.60;21.10;;;;;;;;;;5013673;28;20407;-66
2022/12/20 01:22:52;;;;;;;31.63;19.60;;;;;;;;;;5013893;28;20499;-66
2022/12/20 01:25:18;;;;;;;39.37;21.77;;;;;;;;;;5013901;28;20423;-68
2022/12/20 01:27:44;;;;;;;32.70;20.07;;;;;;;;;;5013522;28;20990;-67
2022/12/20 01:30:10;;;;;;;31.43;20.03;;;;;;;;;;5013854;28;20438;-67
2022/12/20 01:32:36;;;;;;;29.67;20.30;;;;;;;;;;5013705;28;21098;-65
2022/12/20 01:35:03;;;;;;;34.73;20.97;;;;;;;;;;5013873;28;20435;-64
2022/12/20 01:37:30;;;;;;;25.63;17.60;;;;;;;;;;5013944;28;21231;-66
2022/12/20 01:39:56;;;;;;;33.20;20.33;;;;;;;;;;5013901;28;20499;-66
2022/12/20 01:42:22;;;;;;;28.50;20.07;;;;;;;;;;5012415;28;20461;-66
2022/12/20 01:44:51;;;;;;;30.10;18.80;;;;;;;;;;5013756;28;21138;-67
2022/12/20 01:47:17;;;;;;;29.53;20.30;;;;;;;;;;5013350;28;20403;-65
2022/12/20 01:49:45;;;;;;;30.97;19.00;;;;;;;;;;5013460;28;20407;-65
2022/12/20 01:52:25;;;;;;;29.80;20.50;;;;;;;;;;5012521;28;20760;-65
2022/12/20 01:55:17;;;;;;;37.27;20.07;;;;;;;;;;5013370;28;20518;-63
2022/12/20 01:57:46;;;;;;;28.50;18.60;;;;;;;;;;5010536;28;20423;-65
2022/12/20 02:00:13;;;;;;;40.00;22.97;;;;;;;;;;5027796;28;20426;-64
2022/12/20 02:02:39;;;;;;;28.50;19.73;;;;;;;;;;5033543;28;20398;-62
2022/12/20 02:05:06;;;;;;;35.70;21.23;;;;;;;;;;5033593;28;20470;-63
2022/12/20 02:07:35;;;;;;;30.23;20.40;;;;;;;;;;5017961;28;20442;-64
2022/12/20 02:10:02;;;;;;;32.30;22.67;;;;;;;;;;5013203;28;20422;-63
2022/12/20 02:12:31;;;;;;;27.73;19.20;;;;;;;;;;5011719;28;20400;-62
2022/12/20 02:15:00;;;;;;;33.93;20.57;;;;;;;;;;5012910;28;20420;-66
2022/12/20 02:17:56;;;;;;;32.77;22.90;;;;;;;;;;5012745;28;20450;-66
2022/12/20 02:20:28;;;;;;;36.77;23.30;;;;;;;;;;4993111;28;20988;-65
2022/12/20 02:23:09;;;;;;;35.87;23.80;;;;;;;;;;5012808;28;20469;-66
2022/12/20 02:25:35;;;;;;;44.80;23.87;;;;;;;;;;5012771;28;20423;-67
2022/12/20 02:28:21;;;;;;;41.73;26.77;;;;;;;;;;5012165;28;20881;-65
2022/12/20 02:30:49;;;;;;;34.47;24.10;;;;;;;;;;5008115;28;20481;-62
2022/12/20 02:33:15;;;;;;;43.50;25.80;;;;;;;;;;5012427;28;20422;-62
2022/12/20 02:35:42;;;;;;;46.53;26.93;;;;;;;;;;5012200;28;20435;-63
2022/12/20 02:38:25;;;;;;;44.13;23.93;;;;;;;;;;5012074;28;20418;-62
2022/12/20 02:40:54;;;;;;;41.90;24.03;;;;;;;;;;5011520;28;20403;-63
2022/12/20 02:46:07;;;;;;;35.50;22.53;;;;;;;;;;5012767;28;20419;-63
2022/12/20 02:48:34;;;;;;;41.73;26.27;;;;;;;;;;5020400;28;20399;-66
2022/12/20 02:51:02;;;;;;;46.80;25.27;;;;;;;;;;5031173;28;21024;-64
2022/12/20 02:53:29;;;;;;;40.67;24.87;;;;;;;;;;5031911;28;20962;-67
2022/12/20 02:56:09;;;;;;;43.07;26.90;;;;;;;;;;5031711;28;20798;-65
2022/12/20 02:58:42;;;;;;;42.43;24.30;;;;;;;;;;5031175;28;20402;-65
2022/12/20 03:01:10;;;;;;;41.70;23.87;;;;;;;;;;5031059;28;20394;-67
2022/12/20 03:03:36;;;;;;;36.93;23.40;;;;;;;;;;5031668;28;20541;-65
2022/12/20 03:06:03;;;;;;;38.40;23.37;;;;;;;;;;5031855;28;20934;-65
2022/12/20 03:08:29;;;;;;;40.20;22.43;;;;;;;;;;5031328;28;20418;-66
2022/12/20 03:10:55;;;;;;;42.57;25.77;;;;;;;;;;5030321;28;20805;-66
2022/12/20 03:13:22;;;;;;;40.73;24.13;;;;;;;;;;5030947;28;20898;-65
2022/12/20 03:15:49;;;;;;;50.70;29.00;;;;;;;;;;5032215;28;20496;-61
2022/12/20 03:18:15;;;;;;;46.60;24.50;;;;;;;;;;5032083;28;20403;-64
2022/12/20 03:20:41;;;;;;;35.73;22.20;;;;;;;;;;5032094;28;20410;-63
2022/12/20 03:23:07;;;;;;;43.77;25.80;;;;;;;;;;5032053;28;20438;-63
2022/12/20 03:25:34;;;;;;;42.20;24.60;;;;;;;;;;5032315;28;20437;-65
2022/12/20 03:28:00;;;;;;;41.60;23.53;;;;;;;;;;5031096;28;20425;-62
2022/12/20 03:30:26;;;;;;;45.63;24.40;;;;;;;;;;5031464;28;20414;-63
2022/12/20 03:32:52;;;;;;;33.10;24.23;;;;;;;;;;5031392;28;20437;-66
2022/12/20 03:35:18;;;;;;;36.43;22.13;;;;;;;;;;5032925;28;20429;-65
2022/12/20 03:37:44;;;;;;;33.93;21.10;;;;;;;;;;5033359;28;20406;-65
2022/12/20 03:40:10;;;;;;;28.53;20.63;;;;;;;;;;5033113;28;20414;-63
2022/12/20 03:42:37;;;;;;;35.83;19.83;;;;;;;;;;5031602;28;20410;-64
2022/12/20 03:45:03;;;;;;;27.10;18.00;;;;;;;;;;5033582;28;20486;-66
2022/12/20 03:47:29;;;;;;;32.93;19.83;;;;;;;;;;5033247;28;20456;-67
2022/12/20 03:49:56;;;;;;;30.03;19.80;;;;;;;;;;5033178;28;20407;-65
2022/12/20 03:52:22;;;;;;;35.93;19.60;;;;;;;;;;5031894;28;20402;-66
2022/12/20 03:54:48;;;;;;;30.70;19.90;;;;;;;;;;5032452;28;20414;-67
2022/12/20 03:57:15;;;;;;;30.97;20.03;;;;;;;;;;5032059;28;20417;-67
2022/12/20 03:59:42;;;;;;;27.87;18.87;;;;;;;;;;5042342;28;20406;-66
2022/12/20 04:02:08;;;;;;;25.80;17.50;;;;;;;;;;5034459;28;20437;-65
2022/12/20 04:04:34;;;;;;;34.03;19.53;;;;;;;;;;5032353;28;20457;-67
2022/12/20 04:07:00;;;;;;;26.53;17.30;;;;;;;;;;5032335;28;20406;-64
2022/12/20 04:09:26;;;;;;;24.33;16.43;;;;;;;;;;5032104;28;20802;-64
2022/12/20 04:11:52;;;;;;;30.10;18.77;;;;;;;;;;5030734;28;20409;-65
2022/12/20 04:14:19;;;;;;;27.73;19.47;;;;;;;;;;5031690;28;20403;-62
2022/12/20 04:16:45;;;;;;;30.10;19.17;;;;;;;;;;5031703;28;20418;-66
2022/12/20 04:19:11;;;;;;;28.33;18.83;;;;;;;;;;5032215;28;20402;-65
2022/12/20 04:21:37;;;;;;;29.13;17.30;;;;;;;;;;5031172;28;20438;-62
2022/12/20 04:24:04;;;;;;;31.23;19.80;;;;;;;;;;5031774;28;20458;-65
2022/12/20 04:26:30;;;;;;;27.87;17.80;;;;;;;;;;5031908;28;20422;-63
2022/12/20 04:28:57;;;;;;;28.83;18.60;;;;;;;;;;5031560;28;20843;-62
2022/12/20 04:31:23;;;;;;;26.10;17.60;;;;;;;;;;5031307;28;21199;-62
2022/12/20 04:33:49;;;;;;;27.67;16.30;;;;;;;;;;5032263;28;20417;-63
2022/12/20 04:36:15;;;;;;;25.73;17.37;;;;;;;;;;5032053;28;20426;-62
2022/12/20 04:38:42;;;;;;;25.10;17.90;;;;;;;;;;5032066;28;20407;-62
2022/12/20 04:41:08;;;;;;;26.67;17.30;;;;;;;;;;5031198;28;20406;-62
2022/12/20 04:43:34;;;;;;;27.00;17.73;;;;;;;;;;5031535;28;20472;-64
2022/12/20 04:46:00;;;;;;;28.93;16.83;;;;;;;;;;5031679;28;20426;-63
2022/12/20 04:48:27;;;;;;;26.07;17.47;;;;;;;;;;5031930;28;20796;-64
2022/12/20 04:50:54;;;;;;;25.47;17.23;;;;;;;;;;5031743;28;20493;-64
2022/12/20 04:56:05;;;;;;;33.20;17.97;;;;;;;;;;5032208;28;20481;-65
2022/12/20 04:58:31;;;;;;;29.10;17.37;;;;;;;;;;5031560;28;20406;-66
2022/12/20 05:00:57;;;;;;;60.37;19.70;;;;;;;;;;5030432;28;20409;-66
2022/12/20 05:03:24;;;;;;;35.47;18.17;;;;;;;;;;5031241;28;20442;-63
2022/12/20 05:05:50;;;;;;;33.73;20.03;;;;;;;;;;5030267;28;21149;-61
2022/12/20 05:08:17;;;;;;;46.07;18.70;;;;;;;;;;5011080;28;20408;-64
2022/12/20 05:10:43;;;;;;;36.83;19.70;;;;;;;;;;5011866;28;20423;-65
2022/12/20 05:13:09;;;;;;;43.13;19.87;;;;;;;;;;5011679;28;20494;-61
2022/12/20 05:15:35;;;;;;;45.63;19.67;;;;;;;;;;5012813;28;20427;-64
2022/12/20 05:18:02;;;;;;;47.30;20.60;;;;;;;;;;5012922;28;20410;-62
2022/12/20 05:20:31;;;;;;;35.40;20.33;;;;;;;;;;5011161;28;20438;-65
2022/12/20 05:28:29;;;;;;;43.20;22.30;;;;;;;;;;5011483;28;20478;-63
2022/12/20 05:30:55;;;;;;;48.73;20.20;;;;;;;;;;5011141;28;20398;-64
2022/12/20 05:33:21;;;;;;;47.30;22.30;;;;;;;;;;5010735;28;20411;-65
2022/12/20 05:35:47;;;;;;;38.60;22.63;;;;;;;;;;5010096;28;20469;-64
2022/12/20 05:38:13;;;;;;;39.83;21.63;;;;;;;;;;5009927;28;20404;-65
2022/12/20 05:40:39;;;;;;;46.33;23.00;;;;;;;;;;5009631;28;20416;-65
2022/12/20 05:43:06;;;;;;;46.80;23.87;;;;;;;;;;5013355;28;20490;-65
2022/12/20 05:45:32;;;;;;;46.60;22.93;;;;;;;;;;5013455;28;20442;-65
2022/12/20 05:47:58;;;;;;;51.30;23.57;;;;;;;;;;5013452;28;20751;-64
2022/12/20 05:50:25;;;;;;;52.50;25.73;;;;;;;;;;5011794;28;20507;-63
2022/12/20 05:52:51;;;;;;;51.23;22.73;;;;;;;;;;5037431;28;20419;-63
2022/12/20 05:55:17;;;;;;;49.37;22.57;;;;;;;;;;5026010;28;20438;-64
2022/12/20 06:00:36;;;;;;;59.23;22.47;;;;;;;;;;5066263;28;20744;-65
2022/12/20 06:03:02;;;;;;;59.67;22.43;;;;;;;;;;5047391;28;20418;-64
2022/12/20 06:05:38;;;;;;;37.67;21.37;;;;;;;;;;5068952;28;20526;-66
2022/12/20 06:08:44;;;;;;;46.67;22.20;;;;;;;;;;5050345;28;20626;-64
2022/12/20 06:11:11;;;;;;;49.67;22.27;;;;;;;;;;5046704;28;20417;-65
2022/12/20 06:13:37;;;;;;;38.40;20.10;;;;;;;;;;5045218;28;20401;-67
2022/12/20 06:16:03;;;;;;;52.60;21.73;;;;;;;;;;5040633;28;20422;-66
2022/12/20 06:18:29;;;;;;;33.00;19.50;;;;;;;;;;5044758;28;20749;-65
2022/12/20 06:20:55;;;;;;;45.17;22.27;;;;;;;;;;5044415;28;20432;-68
2022/12/20 06:23:22;;;;;;;34.67;19.70;;;;;;;;;;5044709;28;20914;-66
2022/12/20 06:25:48;;;;;;;40.20;19.60;;;;;;;;;;5045074;28;20457;-67
2022/12/20 06:28:20;;;;;;;35.50;18.00;;;;;;;;;;5044290;28;20456;-66
2022/12/20 06:30:51;;;;;;;32.10;19.23;;;;;;;;;;5043610;28;20404;-65
2022/12/20 06:33:17;;;;;;;39.53;19.33;;;;;;;;;;5044717;28;20401;-65
2022/12/20 06:35:43;;;;;;;37.70;20.37;;;;;;;;;;5038754;28;20509;-66
2022/12/20 06:38:09;;;;;;;47.00;19.00;;;;;;;;;;5057267;28;20459;-65
2022/12/20 06:40:35;;;;;;;45.20;20.27;;;;;;;;;;5068092;28;20427;-63
2022/12/20 06:43:01;;;;;;;30.43;17.63;;;;;;;;;;5073513;28;20552;-66
2022/12/20 06:45:27;;;;;;;43.17;19.90;;;;;;;;;;5074827;28;20444;-64
2022/12/20 06:47:53;;;;;;;42.50;21.63;;;;;;;;;;5075855;28;20861;-66
2022/12/20 06:50:20;;;;;;;33.77;20.87;;;;;;;;;;5068048;28;20401;-65
2022/12/20 06:52:46;;;;;;;46.20;21.23;;;;;;;;;;5070452;28;20436;-66
2022/12/20 06:55:12;;;;;;;42.10;22.17;;;;;;;;;;5074645;28;20489;-66
2022/12/20 06:57:38;;;;;;;39.37;21.97;;;;;;;;;;5062042;28;20424;-65
2022/12/20 07:00:04;;;;;;;56.10;23.30;;;;;;;;;;5071008;28;20505;-66
2022/12/20 07:02:30;;;;;;;69.30;25.20;;;;;;;;;;5073081;28;20432;-64
2022/12/20 07:04:56;;;;;;;70.80;24.30;;;;;;;;;;5069650;28;20837;-65
2022/12/20 07:07:22;;;;;;;45.37;22.73;;;;;;;;;;5076941;28;20464;-64
2022/12/20 07:09:49;;;;;;;45.37;22.17;;;;;;;;;;5075499;28;20976;-63
2022/12/20 07:12:15;;;;;;;49.17;22.00;;;;;;;;;;5068816;28;20412;-64
2022/12/20 07:14:41;;;;;;;43.67;20.10;;;;;;;;;;5070355;28;20505;-63
2022/12/20 07:17:07;;;;;;;59.47;23.80;;;;;;;;;;5072974;28;20431;-64
2022/12/20 07:19:35;;;;;;;57.17;25.17;;;;;;;;;;5061436;28;20429;-66
2022/12/20 07:22:01;;;;;;;60.47;22.00;;;;;;;;;;5062267;28;20436;-65
2022/12/20 07:24:27;;;;;;;73.90;26.80;;;;;;;;;;5057883;28;20409;-65
2022/12/20 07:26:53;;;;;;;56.33;21.30;;;;;;;;;;5052186;28;20510;-65
2022/12/20 07:29:19;;;;;;;60.03;21.57;;;;;;;;;;5056034;28;20461;-63
2022/12/20 07:31:45;;;;;;;44.63;20.47;;;;;;;;;;5059754;28;20781;-64
2022/12/20 07:34:11;;;;;;;32.00;18.30;;;;;;;;;;5060179;28;20897;-63
2022/12/20 07:36:38;;;;;;;61.77;19.50;;;;;;;;;;5061766;28;20440;-63
2022/12/20 07:39:04;;;;;;;108.53;24.90;;;;;;;;;;5060124;28;21068;-64
2022/12/20 07:41:31;;;;;;;54.10;20.77;;;;;;;;;;5056392;28;20432;-66
2022/12/20 07:43:58;;;;;;;36.37;17.67;;;;;;;;;;5058150;28;20571;-64
2022/12/20 07:46:24;;;;;;;28.10;16.93;;;;;;;;;;5056713;28;20491;-61
2022/12/20 07:48:50;;;;;;;32.30;18.07;;;;;;;;;;5059648;28;20425;-65
2022/12/20 07:51:45;;;;;;;33.70;18.87;;;;;;;;;;5063166;28;20766;-63
2022/12/20 07:54:19;;;;;;;31.73;18.20;;;;;;;;;;5056523;28;20425;-64
2022/12/20 07:56:47;;;;;;;30.93;18.40;;;;;;;;;;5060414;28;20476;-63
2022/12/20 07:59:14;;;;;;;28.40;17.20;;;;;;;;;;5052332;28;20420;-62
2022/12/20 08:01:42;;;;;;;32.90;16.80;;;;;;;;;;5063051;28;20434;-62
2022/12/20 08:04:14;;;;;;;42.70;17.77;;;;;;;;;;5062822;28;20440;-61
2022/12/20 08:06:40;;;;;;;50.97;19.70;;;;;;;;;;5064188;28;20468;-64
2022/12/20 08:09:07;;;;;;;41.67;19.90;;;;;;;;;;5056603;28;20440;-61
2022/12/20 08:11:34;;;;;;;37.20;19.80;;;;;;;;;;5058872;28;20421;-61
2022/12/20 08:14:01;;;;;;;34.67;20.03;;;;;;;;;;5054033;28;20433;-64
2022/12/20 08:16:27;;;;;;;30.57;17.60;;;;;;;;;;5061969;28;20447;-64
2022/12/20 08:18:53;;;;;;;38.87;17.70;;;;;;;;;;5059851;28;20422;-64
2022/12/20 08:21:19;;;;;;;30.90;18.40;;;;;;;;;;5053953;28;20422;-63
2022/12/20 08:23:45;;;;;;;30.03;17.40;;;;;;;;;;5052707;28;20440;-63
2022/12/20 08:26:11;;;;;;;31.73;17.10;;;;;;;;;;5062429;28;20440;-59
2022/12/20 08:28:37;;;;;;;25.93;16.63;;;;;;;;;;5064276;28;20471;-60
2022/12/20 08:31:04;;;;;;;33.33;18.50;;;;;;;;;;5053382;28;20437;-63
2022/12/20 08:33:31;;;;;;;28.27;17.13;;;;;;;;;;5064250;28;20903;-64
2022/12/20 08:36:01;;;;;;;30.60;17.47;;;;;;;;;;5060325;28;20452;-57
2022/12/20 08:38:31;;;;;;;52.87;21.17;;;;;;;;;;5052477;28;20775;-63
2022/12/20 08:41:09;;;;;;;37.73;19.20;;;;;;;;;;5050800;28;20471;-64
2022/12/20 08:43:35;;;;;;;149.30;29.40;;;;;;;;;;5050704;28;20772;-65
2022/12/20 08:46:01;;;;;;;95.57;22.87;;;;;;;;;;5060990;28;20441;-63
2022/12/20 08:48:28;;;;;;;56.17;19.93;;;;;;;;;;5071374;28;20448;-63
2022/12/20 08:50:55;;;;;;;26.63;12.60;;;;;;;;;;5070623;28;20791;-64
2022/12/20 08:53:21;;;;;;;38.87;19.80;;;7.50;1.00;;;;;;5067677;28;20537;-64
2022/12/20 08:55:47;;;;;;;39.90;20.47;;;7.00;1.00;;;;;;5050336;28;20518;-66
2022/12/20 08:58:12;;;;;;;36.40;20.50;;;5.70;99.90;;;;;;5069968;28;20767;-62
2022/12/20 09:00:38;;;;;;;29.87;19.87;;;5.00;1.00;;;;;;5064628;28;20206;-65
2022/12/20 09:03:04;;;;;;;29.03;19.47;;;4.60;99.90;;;;;;5051349;28;20659;-65
2022/12/20 09:05:29;;;;;;;36.03;21.37;;;4.30;99.90;;;;;;5074794;22;21186;-62
2022/12/20 09:07:55;;;;;;;33.40;21.60;;;4.20;1.00;;;;;;5066319;28;20217;-62
2022/12/20 09:10:21;;;;;;;43.20;23.70;;;4.20;1.80;;;;;;5060042;28;20174;-62
2022/12/20 09:12:46;;;;;;;47.77;23.90;;;4.20;1.00;;;;;;5065137;28;20558;-62
2022/12/20 09:15:12;;;;;;;69.63;27.00;;;4.20;1.00;;;;;;5060645;28;20170;-63
2022/12/20 09:17:37;;;;;;;132.37;32.40;;;4.20;1.00;;;;;;5068981;28;20307;-62
2022/12/20 09:20:04;;;;;;;94.10;26.90;;;4.20;1.00;;;;;;5054981;28;20180;-61
2022/12/20 09:22:30;;;;;;;56.57;22.73;;;4.30;1.00;;;;;;5055676;28;20214;-62
2022/12/20 09:24:55;;;;;;;72.80;25.90;;;4.30;1.00;;;;;;5065515;28;20412;-62
2022/12/20 09:27:21;;;;;;;46.50;21.83;;;4.30;1.00;;;;;;5068213;28;20292;-63
2022/12/20 09:29:47;;;;;;;44.30;21.37;;;4.30;1.00;;;;;;5069338;28;20166;-62
2022/12/20 09:32:13;;;;;;;36.67;21.13;;;4.30;1.00;;;;;;5053876;28;20208;-62
2022/12/20 09:34:38;;;;;;;47.07;20.60;;;4.30;1.00;;;;;;5054056;28;20178;-62
2022/12/20 09:37:04;;;;;;;70.40;22.50;;;4.30;1.00;;;;;;5047050;28;20195;-62
2022/12/20 09:39:30;;;;;;;58.67;22.90;;;4.40;1.00;;;;;;5033937;28;20182;-62
2022/12/20 09:41:57;;;;;;;83.67;24.93;;;4.40;99.90;;;;;;5037508;28;20430;-62
2022/12/20 09:44:30;;;;;;;39.77;21.17;;;4.40;1.00;;;;;;5056087;28;20804;-62
2022/12/20 09:47:02;;;;;;;81.60;26.27;;;4.50;1.00;;;;;;5047698;28;20577;-62
2022/12/20 09:49:32;;;;;;;84.53;24.97;;;4.50;1.00;;;;;;5048437;28;20414;-62
2022/12/20 09:52:28;;;;;;;51.57;25.60;;;4.50;99.90;;;;;;5049417;28;20861;-63
2022/12/20 09:55:16;;;;;;;38.83;24.03;;;4.50;99.90;;;;;;5046063;28;20435;-61
2022/12/20 09:58:19;;;;;;;48.20;22.20;;;4.50;99.90;;;;;;5047734;28;20451;-62
2022/12/20 10:00:48;;;;;;;29.33;18.40;;;4.60;99.90;;;;;;5050712;28;20533;-61
2022/12/20 10:03:26;;;;;;;37.87;22.10;;;4.50;99.90;;;;;;5045507;28;20452;-62
2022/12/20 10:05:53;;;;;;;35.60;20.90;;;4.60;99.90;;;;;;5059182;28;20734;-62
2022/12/20 10:08:22;;;;;;;41.50;22.17;;;4.70;81.80;;;;;;5047239;28;20465;-63
2022/12/20 10:11:01;;;;;;;34.73;23.50;;;4.70;1.00;;;;;;5048094;28;20405;-63
2022/12/20 10:13:30;;;;;;;28.07;19.13;;;4.70;1.00;;;;;;5047388;28;20581;-63
2022/12/20 10:16:06;;;;;;;27.30;19.87;;;4.70;1.00;;;;;;5050832;28;20901;-63
2022/12/20 10:18:45;;;;;;;41.37;22.73;;;4.80;1.00;;;;;;5042293;28;20445;-63
2022/12/20 10:21:18;;;;;;;29.53;19.93;;;4.80;1.00;;;;;;5047960;28;20432;-61
2022/12/20 10:23:47;;;;;;;32.90;19.60;;;4.90;1.00;;;;;;5053922;28;20447;-62
2022/12/20 10:26:12;;;;;;;61.80;23.70;;;4.90;1.00;;;;;;5060080;28;20446;-61
2022/12/20 10:28:39;;;;;;;42.57;21.77;;;4.90;1.00;;;;;;5050775;28;20461;-61
2022/12/20 10:31:15;;;;;;;29.90;18.90;;;5.00;1.00;;;;;;5045775;28;20182;-60
2022/12/20 10:33:42;;;;;;;26.07;19.10;;;5.00;1.00;;;;;;5059375;28;20452;-59
2022/12/20 10:36:22;;;;;;;27.90;18.17;;;5.00;1.00;;;;;;5059871;28;20424;-61
2022/12/20 10:38:54;;;;;;;31.53;18.30;;;5.20;1.00;;;;;;5068427;28;20417;-60
2022/12/20 10:41:26;;;;;;;38.20;18.40;;;5.40;1.00;;;;;;5057398;28;20822;-60
2022/12/20 10:44:00;;;;;;;41.90;20.23;;;5.50;99.90;;;;;;5033865;28;20446;-61
2022/12/20 10:46:41;;;;;;;28.20;18.90;;;5.60;99.90;;;;;;5045376;28;20424;-62
2022/12/20 10:49:20;;;;;;;32.07;19.50;;;5.70;1.00;;;;;;5068402;28;20408;-62
2022/12/20 10:51:54;;;;;;;33.93;19.07;;;5.70;1.00;;;;;;5060791;28;20507;-62
2022/12/20 10:54:34;;;;;;;31.13;21.57;;;5.80;1.00;;;;;;5040427;28;20432;-62
2022/12/20 10:57:12;;;;;;;88.93;23.53;;;5.70;1.00;;;;;;5058915;28;20448;-62
2022/12/20 10:59:41;;;;;;;82.70;21.80;;;5.80;1.00;;;;;;5064518;28;20421;-62
2022/12/20 11:02:26;;;;;;;61.03;21.00;;;5.80;1.00;;;;;;5050863;28;20486;-60
2022/12/20 11:05:05;;;;;;;34.03;19.87;;;5.80;1.00;;;;;;5038826;28;20511;-61
2022/12/20 11:07:32;;;;;;;28.00;18.60;;;6.00;1.00;;;;;;5046527;28;20476;-60
2022/12/20 11:10:23;;;;;;;29.00;18.00;;;5.90;99.90;;;;;;5049447;28;20428;-61
2022/12/20 11:12:53;;;;;;;52.73;20.77;;;5.90;99.90;;;;;;5037528;28;20473;-59
2022/12/20 11:15:21;;;;;;;35.10;19.47;;;5.90;99.90;;;;;;5046640;28;20428;-59
2022/12/20 11:17:51;;;;;;;33.70;18.57;;;5.90;99.90;;;;;;5063456;28;20470;-58
2022/12/20 11:20:58;;;;;;;30.43;19.50;;;6.00;99.90;;;;;;5038858;28;20460;-59
2022/12/20 11:24:01;;;;;;;164.00;31.53;;;6.20;99.90;;;;;;5040898;28;20436;-60
2022/12/20 11:26:27;;;;;;;101.33;27.70;;;6.40;99.90;;;;;;5048422;28;20457;-63
2022/12/20 11:29:11;;;;;;;134.53;28.33;;;6.40;61.90;;;;;;5047985;28;20467;-61
2022/12/20 11:31:50;;;;;;;45.57;22.30;;;6.50;59.40;;;;;;5042168;28;20202;-61
2022/12/20 11:34:41;;;;;;;33.30;19.13;;;6.60;1.00;;;;;;5033164;28;20432;-64
2022/12/20 11:37:23;;;;;;;26.67;18.00;;;6.50;1.00;;;;;;5045501;28;20949;-60
2022/12/20 11:40:11;;;;;;;25.47;19.50;;;6.40;1.00;;;;;;5039856;28;20437;-59
2022/12/20 11:42:51;;;;;;;169.67;33.43;;;6.30;1.00;;;;;;5044986;28;20488;-63
2022/12/20 11:45:36;;;;;;;68.47;24.00;;;6.30;99.90;;;;;;5040664;28;21090;-61
2022/12/20 11:48:45;;;;;;;122.63;27.90;;;6.30;99.90;;;;;;5037932;28;20484;-63
2022/12/20 11:51:47;;;;;;;58.47;22.40;;;6.30;99.90;;;;;;5036791;28;20586;-63
2022/12/20 11:54:31;;;;;;;38.53;21.23;;;6.30;99.90;;;;;;5021334;28;20468;-57
2022/12/20 11:57:21;;;;;;;38.03;20.07;;;6.30;99.90;;;;;;5044355;28;20500;-63
2022/12/20 11:59:56;;;;;;;29.30;18.73;;;6.30;99.90;;;;;;5045640;28;20422;-63
2022/12/20 12:02:32;;;;;;;31.90;20.67;;;6.40;99.90;;;;;;5029512;28;20426;-62
2022/12/20 12:05:02;;;;;;;28.23;19.70;;;6.50;99.90;;;;;;5041835;28;20423;-62
2022/12/20 12:07:34;;;;;;;41.60;19.73;;;6.50;99.90;;;;;;5035227;28;20553;-59
2022/12/20 12:10:16;;;;;;;50.10;21.00;;;6.50;99.90;;;;;;5031271;28;20482;-65
2022/12/20 12:12:47;;;;;;;32.00;19.30;;;6.50;99.90;;;;;;5034903;28;20440;-62
2022/12/20 12:15:37;;;;;;;29.37;18.73;;;6.50;99.90;;;;;;5061576;28;20405;-59
2022/12/20 12:18:10;;;;;;;28.50;19.40;;;6.50;99.90;;;;;;5070776;28;20904;-62
2022/12/20 12:20:52;;;;;;;37.83;20.30;;;6.40;99.90;;;;;;5070276;28;20416;-63
2022/12/20 12:23:29;;;;;;;28.80;19.87;;;6.50;99.90;;;;;;5044539;28;20424;-62
2022/12/20 12:25:57;;;;;;;27.47;19.70;;;6.40;99.90;;;;;;5061763;28;20438;-63
2022/12/20 12:28:22;;;;;;;22.43;18.20;;;6.30;99.90;;;;;;5069566;28;20823;-62
2022/12/20 12:30:57;;;;;;;26.37;20.53;;;6.30;99.90;;;;;;5069545;28;20412;-62
2022/12/20 12:33:34;;;;;;;39.67;20.40;;;6.30;99.90;;;;;;5070476;28;20179;-63
2022/12/20 12:36:26;;;;;;;127.70;31.73;;;6.30;99.90;;;;;;5064010;28;20531;-62
2022/12/20 12:39:25;;;;;;;64.03;23.90;;;6.30;99.90;;;;;;5061234;28;20435;-63
2022/12/20 12:41:53;;;;;;;70.50;23.77;;;6.20;99.90;;;;;;5054279;28;20435;-61
2022/12/20 12:44:37;;;;;;;153.50;30.60;;;6.20;99.90;;;;;;5053461;28;20439;-63
2022/12/20 12:47:14;;;;;;;85.83;24.93;;;6.20;99.90;;;;;;5050508;28;20495;-57
2022/12/20 12:49:41;;;;;;;29.73;19.23;;;6.20;99.90;;;;;;5052876;28;20490;-62
2022/12/20 12:52:41;;;;;;;28.67;19.43;;;6.20;1.00;;;;;;5044053;28;20429;-60
2022/12/20 12:55:40;;;;;;;40.33;20.90;;;6.20;99.90;;;;;;5038424;28;20426;-62
2022/12/20 12:58:22;;;;;;;57.37;24.60;;;6.20;99.90;;;;;;5037648;28;20453;-62
2022/12/20 13:00:55;;;;;;;33.90;18.83;;;6.20;1.00;;;;;;5036167;28;20484;-62
2022/12/20 13:03:51;;;;;;;32.53;19.27;;;6.20;1.00;;;;;;5039808;28;20999;-62
2022/12/20 13:06:27;;;;;;;29.80;19.90;;;6.10;1.00;;;;;;5041910;28;20487;-63
2022/12/20 13:08:55;;;;;;;29.70;17.77;;;6.20;1.00;;;;;;5037686;28;20874;-65
2022/12/20 13:11:36;;;;;;;32.00;19.00;;;6.20;1.00;;;;;;5036978;28;20507;-63
2022/12/20 13:14:22;;;;;;;30.17;19.20;;;6.20;1.00;;;;;;5033644;28;20466;-63
2022/12/20 13:16:50;;;;;;;28.90;17.57;;;6.10;1.00;;;;;;5035162;28;20454;-59
2022/12/20 13:19:29;;;;;;;32.13;19.90;;;6.10;1.00;;;;;;5039890;28;20747;-63
2022/12/20 13:21:56;;;;;;;117.43;25.70;;;6.20;1.00;;;;;;5042918;28;20433;-65
2022/12/20 13:24:45;;;;;;;50.53;20.73;;;6.20;1.00;;;;;;5036539;28;20512;-63
2022/12/20 13:27:29;;;;;;;42.43;20.47;;;6.20;7.80;;;;;;5042067;28;20472;-60
2022/12/20 13:30:09;;;;;;;31.33;18.67;;;6.20;1.00;;;;;;5040082;28;20421;-62
2022/12/20 13:32:46;;;;;;;34.50;19.40;;;6.20;83.10;;;;;;5035197;28;20426;-62
2022/12/20 13:35:24;;;;;;;34.07;20.17;;;6.20;99.90;;;;;;5045008;28;20759;-62
2022/12/20 13:38:08;;;;;;;25.00;18.60;;;6.20;99.90;;;;;;5039749;28;20429;-59
2022/12/20 13:40:42;;;;;;;43.33;22.17;;;6.30;99.90;;;;;;5039172;28;20437;-58
2022/12/20 13:43:22;;;;;;;25.00;18.97;;;6.40;1.00;;;;;;5057647;28;20415;-62
2022/12/20 13:45:48;;;;;;;26.13;18.60;;;6.30;1.00;;;;;;5030858;28;20788;-60
2022/12/20 13:48:30;;;;;;;29.33;19.30;;;6.30;1.00;;;;;;5040095;28;20464;-62
2022/12/20 13:50:57;;;;;;;32.33;18.40;;;6.30;1.00;;;;;;5032104;28;20179;-64
2022/12/20 13:53:26;;;;;;;32.80;20.23;;;6.20;1.00;;;;;;5030860;28;20870;-61
2022/12/20 13:55:53;;;;;;;23.67;19.70;;;6.20;1.00;;;;;;5043941;28;21028;-62
2022/12/20 13:58:20;;;;;;;33.50;20.80;;;6.20;45.50;;;;;;5036239;28;20525;-59
2022/12/20 14:00:47;;;;;;;29.07;19.10;;;6.10;99.90;;;;;;5034717;28;20430;-64
2022/12/20 14:03:24;;;;;;;30.20;19.67;;;6.10;99.90;;;;;;5034879;28;20463;-61
2022/12/20 14:06:00;;;;;;;31.73;21.20;;;6.10;99.90;;;;;;5035129;28;20457;-60
2022/12/20 14:08:31;;;;;;;40.10;22.30;;;6.10;99.90;;;;;;5039252;28;20483;-60
2022/12/20 14:11:10;;;;;;;47.90;21.23;;;6.00;99.90;;;;;;5038630;28;20755;-62
2022/12/20 14:13:36;;;;;;;41.83;20.73;;;6.00;99.90;;;;;;5035960;28;20519;-59